createdAt,value
2016-07-30T00:00:23.804Z,77.15
2016-07-30T00:01:23.828Z,77.15
2016-07-30T00:02:23.855Z,77.25
2016-07-30T00:03:24.595Z,77.34
2016-07-30T00:04:23.891Z,77.34
2016-07-30T00:05:23.913Z,77.83
2016-07-30T00:06:23.928Z,78.21
2016-07-30T00:07:23.958Z,78.4
2016-07-30T00:08:23.973Z,78.4
2016-07-30T00:09:23.994Z,78.98
2016-07-30T00:10:24.010Z,78.5
2016-07-30T00:11:24.035Z,78.78
2016-07-30T00:12:24.056Z,78.5
2016-07-30T00:13:24.080Z,78.98
2016-07-30T00:14:24.090Z,78.4
2016-07-30T00:15:24.112Z,78.65
2016-07-30T00:16:24.140Z,78.69
2016-07-30T00:17:24.149Z,78.78
2016-07-30T00:18:24.178Z,78.75
2016-07-30T00:19:24.194Z,78.36
2016-07-30T00:20:24.225Z,78.94
2016-07-30T00:21:24.239Z,78.45
2016-07-30T00:22:24.256Z,77.78
2016-07-30T00:23:24.274Z,78.45
2016-07-30T00:24:24.298Z,78.55
2016-07-30T00:25:24.323Z,78.94
2016-07-30T00:26:24.339Z,78.94
2016-07-30T00:27:24.364Z,78.45
2016-07-30T00:28:24.375Z,78.65
2016-07-30T00:29:24.403Z,78.27
2016-07-30T00:30:24.418Z,78.36
2016-07-30T00:31:24.443Z,78.17
2016-07-30T00:32:24.463Z,78.36
2016-07-30T00:33:24.485Z,78.17
2016-07-30T00:34:24.504Z,78.84
2016-07-30T00:35:24.521Z,78.75
2016-07-30T00:36:24.542Z,78.75
2016-07-30T00:37:24.562Z,78.65
2016-07-30T00:38:24.583Z,79.13
2016-07-30T00:39:24.606Z,79.22
2016-07-30T00:40:24.618Z,79.61
2016-07-30T00:41:24.642Z,79.32
2016-07-30T00:42:24.669Z,79.52
2016-07-30T00:43:24.682Z,79.8
2016-07-30T00:44:24.704Z,79.96
2016-07-30T00:45:24.724Z,80.43
2016-07-30T00:46:24.738Z,80.43
2016-07-30T00:47:24.771Z,80.24
2016-07-30T00:48:24.788Z,80.34
2016-07-30T00:49:24.805Z,80.63
2016-07-30T00:50:24.829Z,80.73
2016-07-30T00:51:24.845Z,80.82
2016-07-30T00:52:24.867Z,80.73
2016-07-30T00:53:24.882Z,80.82
2016-07-30T00:54:24.908Z,80.63
2016-07-30T00:55:24.926Z,80.91
2016-07-30T00:56:24.948Z,81.3
2016-07-30T00:57:24.972Z,81.01
2016-07-30T00:58:24.985Z,81.49
2016-07-30T00:59:25.006Z,81.4
2016-07-30T01:00:25.022Z,81.97
2016-07-30T01:01:25.050Z,81.78
2016-07-30T01:02:25.068Z,81.78
2016-07-30T01:03:25.081Z,82.35
2016-07-30T01:04:25.110Z,82.35
2016-07-30T01:05:25.130Z,81.97
2016-07-30T01:06:25.146Z,82.93
2016-07-30T01:07:25.188Z,82.54
2016-07-30T01:08:25.189Z,83.03
2016-07-30T01:09:25.212Z,82.84
2016-07-30T01:10:25.227Z,83.03
2016-07-30T01:11:25.241Z,83.41
2016-07-30T01:12:25.267Z,83.98
2016-07-30T01:13:25.294Z,83.7
2016-07-30T01:14:25.309Z,83.8
2016-07-30T01:15:25.327Z,83.51
2016-07-30T01:16:25.341Z,83.6
2016-07-30T01:17:25.373Z,83.6
2016-07-30T01:18:25.390Z,84.47
2016-07-30T01:19:25.411Z,84.37
2016-07-30T01:20:25.424Z,84.27
2016-07-30T01:21:25.449Z,84.56
2016-07-30T01:22:25.498Z,84.37
2016-07-30T01:23:25.491Z,84.56
2016-07-30T01:24:25.514Z,85.14
2016-07-30T01:25:25.525Z,85.14
2016-07-30T01:26:25.550Z,85.14
2016-07-30T01:27:25.570Z,84.95
2016-07-30T01:28:25.583Z,85.14
2016-07-30T01:29:25.609Z,85.33
2016-07-30T01:30:25.628Z,85.14
2016-07-30T01:31:25.661Z,84.85
2016-07-30T01:32:25.667Z,85.14
2016-07-30T01:33:25.684Z,85.62
2016-07-30T01:34:25.716Z,85.52
2016-07-30T01:35:25.733Z,85.33
2016-07-30T01:36:25.748Z,85.62
2016-07-30T01:38:25.785Z,85.71
2016-07-30T01:39:25.812Z,85.81
2016-07-30T01:40:25.825Z,85.86
2016-07-30T01:41:25.851Z,85.62
2016-07-30T01:42:25.873Z,85.86
2016-07-30T01:43:25.900Z,86.05
2016-07-30T01:44:25.913Z,85.86
2016-07-30T01:45:25.934Z,85.67
2016-07-30T01:46:25.954Z,85.96
2016-07-30T01:47:25.973Z,86.44
2016-07-30T01:48:25.990Z,86.15
2016-07-30T01:49:26.009Z,86.25
2016-07-30T01:50:26.037Z,86.15
2016-07-30T01:51:26.051Z,86.25
2016-07-30T01:53:26.088Z,85.77
2016-07-30T01:54:26.114Z,85.86
2016-07-30T01:55:26.134Z,85.67
2016-07-30T01:56:26.150Z,85.96
2016-07-30T01:57:26.167Z,86.25
2016-07-30T01:58:26.186Z,85.96
2016-07-30T01:59:26.208Z,86.54
2016-07-30T02:00:26.233Z,85.86
2016-07-30T02:01:26.243Z,85.86
2016-07-30T02:02:26.264Z,86.15
2016-07-30T02:03:26.287Z,86.34
2016-07-30T02:04:26.310Z,85.67
2016-07-30T02:05:26.325Z,85.77
2016-07-30T02:06:26.347Z,86.05
2016-07-30T02:08:26.389Z,86.34
2016-07-30T02:09:26.405Z,86.15
2016-07-30T02:10:26.428Z,86.15
2016-07-30T02:11:26.451Z,85.96
2016-07-30T02:12:26.472Z,86.44
2016-07-30T02:13:26.483Z,86.44
2016-07-30T02:14:26.507Z,86.44
2016-07-30T02:15:26.532Z,86.44
2016-07-30T02:16:26.548Z,86.54
2016-07-30T02:17:26.557Z,86.34
2016-07-30T02:18:26.590Z,86.44
2016-07-30T02:19:26.603Z,86.34
2016-07-30T02:20:26.620Z,86.34
2016-07-30T02:21:26.638Z,86.92
2016-07-30T02:23:26.680Z,87.07
2016-07-30T02:24:26.699Z,86.88
2016-07-30T02:25:26.720Z,87.07
2016-07-30T02:26:26.743Z,86.88
2016-07-30T02:27:26.766Z,86.78
2016-07-30T02:28:26.783Z,87.07
2016-07-30T02:29:26.809Z,87.55
2016-07-30T02:30:26.815Z,87.64
2016-07-30T02:31:26.845Z,87.45
2016-07-30T02:32:26.863Z,87.64
2016-07-30T02:33:26.885Z,87.74
2016-07-30T02:34:26.906Z,87.74
2016-07-30T02:35:26.914Z,87.93
2016-07-30T02:36:26.943Z,87.74
2016-07-30T02:38:26.984Z,87.55
2016-07-30T02:39:27.003Z,87.55
2016-07-30T02:40:27.027Z,87.74
2016-07-30T02:41:27.039Z,86.97
2016-07-30T02:42:27.057Z,87.07
2016-07-30T02:43:27.080Z,87.26
2016-07-30T02:44:27.103Z,87.07
2016-07-30T02:45:27.118Z,87.16
2016-07-30T02:46:27.139Z,87.26
2016-07-30T02:47:27.158Z,87.45
2016-07-30T02:48:27.173Z,87.35
2016-07-30T02:49:27.195Z,87.35
2016-07-30T02:50:27.214Z,87.26
2016-07-30T02:51:27.236Z,87.26
2016-07-30T02:52:27.261Z,87.26
2016-07-30T02:53:27.272Z,87.26
2016-07-30T02:54:27.298Z,87.16
2016-07-30T02:55:27.317Z,87.16
2016-07-30T02:56:27.336Z,86.88
2016-07-30T02:57:27.356Z,86.88
2016-07-30T02:58:27.374Z,86.88
2016-07-30T02:59:27.395Z,87.07
2016-07-30T03:00:27.418Z,87.64
2016-07-30T03:01:27.439Z,87.26
2016-07-30T03:02:27.454Z,87.64
2016-07-30T03:03:27.474Z,87.35
2016-07-30T03:04:27.492Z,87.26
2016-07-30T03:05:27.508Z,87.26
2016-07-30T03:06:27.533Z,87.45
2016-07-30T03:07:27.554Z,87.55
2016-07-30T03:08:27.574Z,87.64
2016-07-30T03:09:27.587Z,87.55
2016-07-30T03:10:27.613Z,87.84
2016-07-30T03:11:27.621Z,88.22
2016-07-30T03:12:27.651Z,87.45
2016-07-30T03:13:27.671Z,87.93
2016-07-30T03:14:27.683Z,87.45
2016-07-30T03:15:27.719Z,87.64
2016-07-30T03:16:27.729Z,87.26
2016-07-30T03:17:27.754Z,87.68
2016-07-30T03:18:27.769Z,87.68
2016-07-30T03:19:27.790Z,87.07
2016-07-30T03:20:27.810Z,87.21
2016-07-30T03:21:27.830Z,87.3
2016-07-30T03:22:27.840Z,87.26
2016-07-30T03:23:27.868Z,87.3
2016-07-30T03:24:27.890Z,87.11
2016-07-30T03:25:27.908Z,86.72
2016-07-30T03:26:27.921Z,86.92
2016-07-30T03:27:27.939Z,86.54
2016-07-30T03:28:27.965Z,86.54
2016-07-30T03:29:27.987Z,86.68
2016-07-30T03:30:28.012Z,86.92
2016-07-30T03:31:28.024Z,86.92
2016-07-30T03:32:28.052Z,86.72
2016-07-30T03:33:28.063Z,86.92
2016-07-30T03:34:28.079Z,86.92
2016-07-30T03:35:28.107Z,86.72
2016-07-30T03:36:28.127Z,86.82
2016-07-30T03:37:28.139Z,87.4
2016-07-30T03:38:28.153Z,86.92
2016-07-30T03:39:28.189Z,87.01
2016-07-30T03:40:28.198Z,87.01
2016-07-30T03:41:28.222Z,87.68
2016-07-30T03:42:28.239Z,87.68
2016-07-30T03:43:28.265Z,87.59
2016-07-30T03:44:28.287Z,87.35
2016-07-30T03:45:28.300Z,87.78
2016-07-30T03:46:28.323Z,87.68
2016-07-30T03:47:28.341Z,87.68
2016-07-30T03:48:28.364Z,88.07
2016-07-30T03:49:28.382Z,87.93
2016-07-30T03:50:28.399Z,87.74
2016-07-30T03:51:28.420Z,87.64
2016-07-30T03:52:28.433Z,88.02
2016-07-30T03:53:28.457Z,87.88
2016-07-30T03:54:28.478Z,87.84
2016-07-30T03:55:28.500Z,88.26
2016-07-30T03:56:28.512Z,88.65
2016-07-30T03:57:28.531Z,88.02
2016-07-30T03:58:28.559Z,88.22
2016-07-30T03:59:28.567Z,87.64
2016-07-30T04:00:28.599Z,88.22
2016-07-30T04:01:28.614Z,88.22
2016-07-30T04:02:28.629Z,87.4
2016-07-30T04:03:28.652Z,87.74
2016-07-30T04:04:28.678Z,88.07
2016-07-30T04:05:28.699Z,88.17
2016-07-30T04:06:28.709Z,87.68
2016-07-30T04:07:28.736Z,87.3
2016-07-30T04:08:28.754Z,87.11
2016-07-30T04:09:28.778Z,87.49
2016-07-30T04:10:28.791Z,87.01
2016-07-30T04:11:28.814Z,87.01
2016-07-30T04:12:28.834Z,86.34
2016-07-30T04:13:28.859Z,86.15
2016-07-30T04:14:28.865Z,86.34
2016-07-30T04:15:28.886Z,86.34
2016-07-30T04:16:28.915Z,85.86
2016-07-30T04:17:28.938Z,85.48
2016-07-30T04:18:28.954Z,85.91
2016-07-30T04:19:28.977Z,85.04
2016-07-30T04:20:28.992Z,85.14
2016-07-30T04:21:29.014Z,84.61
2016-07-30T04:22:29.029Z,84.66
2016-07-30T04:23:29.048Z,84.08
2016-07-30T04:24:29.068Z,84.18
2016-07-30T04:25:29.087Z,83.31
2016-07-30T04:26:29.112Z,83.12
2016-07-30T04:27:29.134Z,83.89
2016-07-30T04:28:29.148Z,83.12
2016-07-30T04:29:29.168Z,82.93
2016-07-30T04:30:29.191Z,82.84
2016-07-30T04:31:29.210Z,82.64
2016-07-30T04:32:29.235Z,82.07
2016-07-30T04:33:29.250Z,82.26
2016-07-30T04:34:29.270Z,82.26
2016-07-30T04:35:29.295Z,81.68
2016-07-30T04:36:29.311Z,81.43
2016-07-30T04:37:29.330Z,81.15
2016-07-30T04:38:29.355Z,80.76
2016-07-30T04:39:29.371Z,80.66
2016-07-30T04:40:29.388Z,80.04
2016-07-30T04:41:29.414Z,79.65
2016-07-30T04:42:29.439Z,79.17
2016-07-30T04:43:29.454Z,78.78
2016-07-30T04:44:30.178Z,78.21
2016-07-30T04:45:29.485Z,78.44
2016-07-30T04:46:29.514Z,77.76
2016-07-30T04:47:29.527Z,77.38
2016-07-30T04:48:29.555Z,76.52
2016-07-30T04:49:29.576Z,76.65
2016-07-30T04:50:29.594Z,75.69
2016-07-30T04:51:29.610Z,75.21
2016-07-30T04:52:29.641Z,74.44
2016-07-30T04:53:29.657Z,74.57
2016-07-30T04:54:29.676Z,74.09
2016-07-30T04:55:29.694Z,73.61
2016-07-30T04:56:29.712Z,72.84
2016-07-30T04:57:29.743Z,72.65
2016-07-30T04:58:29.755Z,72.26
2016-07-30T04:59:29.772Z,71.97
2016-07-30T05:00:29.806Z,71.43
2016-07-30T05:01:29.822Z,71.2
2016-07-30T05:02:29.842Z,71.01
2016-07-30T05:03:29.865Z,71.2
2016-07-30T05:04:29.882Z,71.88
2016-07-30T05:05:29.908Z,71.49
2016-07-30T05:06:29.927Z,71.78
2016-07-30T05:07:29.948Z,71.88
2016-07-30T05:08:29.980Z,71.59
2016-07-30T05:09:29.984Z,71.97
2016-07-30T05:10:30.010Z,71.97
2016-07-30T05:11:30.030Z,71.94
2016-07-30T05:12:30.054Z,72.45
2016-07-30T05:13:30.069Z,72.36
2016-07-30T05:14:30.092Z,72.45
2016-07-30T05:15:30.114Z,72.32
2016-07-30T05:16:30.138Z,72.42
2016-07-30T05:17:30.149Z,72.23
2016-07-30T05:18:30.178Z,72.65
2016-07-30T05:19:30.190Z,72.26
2016-07-30T05:20:30.221Z,72.61
2016-07-30T05:21:30.234Z,72.13
2016-07-30T05:22:30.255Z,72.8
2016-07-30T05:23:30.277Z,72.36
2016-07-30T05:24:30.302Z,72.23
2016-07-30T05:25:30.318Z,72.07
2016-07-30T05:26:30.347Z,71.97
2016-07-30T05:27:30.362Z,72.55
2016-07-30T05:28:30.385Z,72.32
2016-07-30T05:29:30.398Z,72.55
2016-07-30T05:30:30.422Z,72.36
2016-07-30T05:31:30.452Z,72.52
2016-07-30T05:32:30.466Z,72.03
2016-07-30T05:33:30.482Z,72.23
2016-07-30T05:34:30.501Z,72.23
2016-07-30T05:35:30.530Z,72.13
2016-07-30T05:36:30.547Z,72.13
2016-07-30T05:37:30.565Z,72.26
2016-07-30T05:38:30.593Z,71.88
2016-07-30T05:39:30.612Z,71.88
2016-07-30T05:40:30.627Z,71.59
2016-07-30T05:41:30.653Z,71.2
2016-07-30T05:42:30.677Z,71.3
2016-07-30T05:43:30.698Z,71.2
2016-07-30T05:44:30.716Z,71.69
2016-07-30T05:45:30.740Z,71.49
2016-07-30T05:46:30.760Z,70.98
2016-07-30T05:47:30.773Z,71.01
2016-07-30T05:48:30.800Z,71.2
2016-07-30T05:49:30.818Z,70.98
2016-07-30T05:50:30.840Z,71.3
2016-07-30T05:51:30.861Z,70.92
2016-07-30T05:52:30.887Z,70.59
2016-07-30T05:53:30.903Z,70.53
2016-07-30T05:54:30.924Z,70.34
2016-07-30T05:55:30.948Z,69.85
2016-07-30T05:56:30.969Z,69.57
2016-07-30T05:57:30.995Z,69.85
2016-07-30T05:58:31.004Z,69.85
2016-07-30T05:59:31.034Z,69.76
2016-07-30T06:00:31.048Z,70.05
2016-07-30T06:01:31.067Z,69.85
2016-07-30T06:02:31.093Z,69.67
2016-07-30T06:03:31.113Z,69.67
2016-07-30T06:04:31.141Z,69.76
2016-07-30T06:05:31.151Z,69.95
2016-07-30T06:06:31.175Z,69.67
2016-07-30T06:07:31.192Z,69.76
2016-07-30T06:08:31.246Z,69.57
2016-07-30T06:09:31.234Z,69.76
2016-07-30T06:10:31.258Z,69.09
2016-07-30T06:11:31.273Z,69.79
2016-07-30T06:12:31.301Z,68.84
2016-07-30T06:13:31.318Z,69.22
2016-07-30T06:14:31.341Z,69.6
2016-07-30T06:15:31.360Z,69.12
2016-07-30T06:16:31.378Z,68.54
2016-07-30T06:17:31.397Z,68.84
2016-07-30T06:18:31.428Z,68.54
2016-07-30T06:19:31.441Z,67.39
2016-07-30T06:20:31.467Z,67.42
2016-07-30T06:21:31.484Z,67.42
2016-07-30T06:22:31.508Z,67.74
2016-07-30T06:23:31.537Z,67.55
2016-07-30T06:24:31.551Z,67.36
2016-07-30T06:25:31.569Z,67.07
2016-07-30T06:26:31.600Z,66.88
2016-07-30T06:27:31.620Z,67.07
2016-07-30T06:28:31.633Z,66.3
2016-07-30T06:29:31.662Z,66.2
2016-07-30T06:30:31.683Z,65.91
2016-07-30T06:31:31.695Z,65.81
2016-07-30T06:32:31.724Z,65.63
2016-07-30T06:33:31.747Z,66.3
2016-07-30T06:34:31.771Z,66.49
2016-07-30T06:35:31.782Z,66.3
2016-07-30T06:36:31.808Z,66.97
2016-07-30T06:37:31.838Z,67.71
2016-07-30T06:39:31.871Z,67.52
2016-07-30T06:40:31.888Z,68.1
2016-07-30T06:41:31.907Z,67.61
2016-07-30T06:42:31.935Z,67.23
2016-07-30T06:43:31.956Z,67.61
2016-07-30T06:44:31.982Z,67.9
2016-07-30T06:45:32.013Z,67.71
2016-07-30T06:46:32.018Z,67.61
2016-07-30T06:47:32.043Z,67.65
2016-07-30T06:48:32.061Z,67.9
2016-07-30T06:49:32.084Z,67.16
2016-07-30T06:50:32.105Z,67.03
2016-07-30T06:51:32.128Z,67.26
2016-07-30T06:52:32.144Z,66.78
2016-07-30T06:54:32.188Z,67.55
2016-07-30T06:55:32.210Z,67.52
2016-07-30T06:56:32.234Z,67.33
2016-07-30T06:57:32.252Z,67.65
2016-07-30T06:58:32.276Z,66.59
2016-07-30T06:59:32.293Z,66.88
2016-07-30T07:00:32.321Z,66.97
2016-07-30T07:01:32.344Z,67.26
2016-07-30T07:02:32.359Z,66.88
2016-07-30T07:03:32.377Z,67.16
2016-07-30T07:04:32.399Z,67.55
2016-07-30T07:05:32.431Z,67.61
2016-07-30T07:06:32.447Z,67.65
2016-07-30T07:07:32.467Z,67.81
2016-07-30T07:09:32.507Z,67.07
2016-07-30T07:10:32.537Z,67.46
2016-07-30T07:11:32.554Z,67.16
2016-07-30T07:12:32.569Z,67.65
2016-07-30T07:13:32.589Z,66.75
2016-07-30T07:14:32.615Z,66.94
2016-07-30T07:15:32.642Z,67.81
2016-07-30T07:16:32.655Z,66.75
2016-07-30T07:17:32.684Z,67.9
2016-07-30T07:18:32.698Z,67.03
2016-07-30T07:19:32.731Z,67.81
2016-07-30T07:20:32.745Z,68.19
2016-07-30T07:21:32.767Z,68.1
2016-07-30T07:22:32.790Z,67.71
2016-07-30T07:24:32.831Z,67.42
2016-07-30T07:25:32.853Z,66.49
2016-07-30T07:26:32.876Z,66.39
2016-07-30T07:27:32.896Z,66.39
2016-07-30T07:28:32.916Z,66.97
2016-07-30T07:29:32.936Z,67.26
2016-07-30T07:30:32.965Z,66.78
2016-07-30T07:31:32.977Z,67.55
2016-07-30T07:32:33.006Z,67.07
2016-07-30T07:33:33.020Z,67.07
2016-07-30T07:34:33.040Z,67.74
2016-07-30T07:35:33.065Z,67.55
2016-07-30T07:36:33.090Z,67.61
2016-07-30T07:37:33.108Z,67.42
2016-07-30T07:39:33.152Z,68.26
2016-07-30T07:40:33.163Z,68.44
2016-07-30T07:41:33.187Z,68.54
2016-07-30T07:42:33.212Z,68.64
2016-07-30T07:43:33.227Z,68.44
2016-07-30T07:44:33.252Z,68.26
2016-07-30T07:45:33.271Z,68
2016-07-30T07:46:33.290Z,67.52
2016-07-30T07:47:33.315Z,67.42
2016-07-30T07:48:33.337Z,66.94
2016-07-30T07:49:33.361Z,67.33
2016-07-30T07:50:33.387Z,67.33
2016-07-30T07:51:33.409Z,66.88
2016-07-30T07:52:33.417Z,66.78
2016-07-30T07:54:33.465Z,65.56
2016-07-30T07:55:33.484Z,65.27
2016-07-30T07:56:33.503Z,65.66
2016-07-30T07:57:33.524Z,66.24
2016-07-30T07:58:33.557Z,66.3
2016-07-30T07:59:33.577Z,67.07
2016-07-30T08:00:33.590Z,66.69
2016-07-30T08:01:33.612Z,66.3
2016-07-30T08:02:33.637Z,66.3
2016-07-30T08:03:33.665Z,66.88
2016-07-30T08:04:33.679Z,66.3
2016-07-30T08:05:33.706Z,66.59
2016-07-30T08:06:33.716Z,66.39
2016-07-30T08:07:33.745Z,66.69
2016-07-30T08:08:33.766Z,66.2
2016-07-30T08:09:33.791Z,66.3
2016-07-30T08:10:33.810Z,66.49
2016-07-30T08:11:33.834Z,66.97
2016-07-30T08:12:33.854Z,67.26
2016-07-30T08:13:33.871Z,67.55
2016-07-30T08:14:33.891Z,66.94
2016-07-30T08:15:33.921Z,67.03
2016-07-30T08:16:33.938Z,66.78
2016-07-30T08:17:33.961Z,66.3
2016-07-30T08:18:33.970Z,66.39
2016-07-30T08:19:33.999Z,66.3
2016-07-30T08:20:34.022Z,66.01
2016-07-30T08:21:34.052Z,66.01
2016-07-30T08:22:34.062Z,65.72
2016-07-30T08:23:34.091Z,65.24
2016-07-30T08:24:34.113Z,65.05
2016-07-30T08:25:34.125Z,65.24
2016-07-30T08:26:34.151Z,66.04
2016-07-30T08:27:34.171Z,65.37
2016-07-30T08:28:34.195Z,65.05
2016-07-30T08:29:34.213Z,65.08
2016-07-30T08:30:34.237Z,65.08
2016-07-30T08:31:34.255Z,65.24
2016-07-30T08:32:34.282Z,64.95
2016-07-30T08:33:34.300Z,65.72
2016-07-30T08:34:34.324Z,66.3
2016-07-30T08:35:34.344Z,66.88
2016-07-30T08:36:34.360Z,66.78
2016-07-30T08:37:34.387Z,66.2
2016-07-30T08:38:34.406Z,65.14
2016-07-30T08:39:34.428Z,64.86
2016-07-30T08:40:34.452Z,64.02
2016-07-30T08:41:34.472Z,64.4
2016-07-30T08:42:34.502Z,63.34
2016-07-30T08:43:34.513Z,62.96
2016-07-30T08:44:34.539Z,63.82
2016-07-30T08:45:34.557Z,64.37
2016-07-30T08:46:34.580Z,64.31
2016-07-30T08:47:34.602Z,63.34
2016-07-30T08:48:34.624Z,63.34
2016-07-30T08:49:34.644Z,62.76
2016-07-30T08:50:34.669Z,62.09
2016-07-30T08:51:34.686Z,61.51
2016-07-30T08:52:34.706Z,60.86
2016-07-30T08:53:34.732Z,59.45
2016-07-30T08:54:34.756Z,59.25
2016-07-30T08:55:34.773Z,59
2016-07-30T08:56:34.796Z,58.42
2016-07-30T08:57:34.822Z,58.32
2016-07-30T08:58:34.843Z,58.22
2016-07-30T08:59:34.862Z,57.64
2016-07-30T09:00:34.887Z,58.29
2016-07-30T09:01:34.910Z,58.39
2016-07-30T09:02:34.935Z,59.35
2016-07-30T09:03:34.950Z,58.97
2016-07-30T09:04:34.974Z,58.39
2016-07-30T09:05:35.009Z,58.97
2016-07-30T09:06:35.019Z,57.9
2016-07-30T09:07:35.032Z,57.54
2016-07-30T09:08:35.061Z,57.16
2016-07-30T09:09:35.078Z,57.26
2016-07-30T09:10:35.109Z,57.48
2016-07-30T09:11:35.124Z,56.61
2016-07-30T09:12:35.144Z,56.22
2016-07-30T09:13:35.166Z,56.22
2016-07-30T09:14:35.195Z,55.93
2016-07-30T09:15:35.215Z,56.71
2016-07-30T09:16:35.243Z,56.35
2016-07-30T09:17:35.258Z,57.19
2016-07-30T09:18:35.282Z,57.29
2016-07-30T09:19:35.299Z,57.84
2016-07-30T09:20:35.330Z,56.77
2016-07-30T09:21:35.350Z,56.36
2016-07-30T09:22:35.372Z,56.94
2016-07-30T09:23:35.387Z,56.26
2016-07-30T09:24:35.417Z,55.01
2016-07-30T09:25:35.435Z,55.04
2016-07-30T09:26:35.460Z,54.94
2016-07-30T09:27:35.481Z,53.81
2016-07-30T09:28:35.505Z,53.13
2016-07-30T09:29:35.522Z,51.68
2016-07-30T09:30:35.547Z,51.81
2016-07-30T09:31:35.566Z,51.51
2016-07-30T09:32:35.596Z,51.13
2016-07-30T09:33:35.618Z,51.73
2016-07-30T09:34:35.642Z,50.18
2016-07-30T09:35:35.660Z,51.71
2016-07-30T09:36:35.685Z,51.51
2016-07-30T09:37:35.701Z,52.26
2016-07-30T09:38:35.728Z,52.26
2016-07-30T09:39:35.756Z,52.07
2016-07-30T09:40:35.767Z,51.49
2016-07-30T09:41:35.793Z,50.43
2016-07-30T09:42:35.822Z,51.29
2016-07-30T09:43:35.834Z,51.2
2016-07-30T09:44:35.863Z,51.78
2016-07-30T09:45:35.885Z,51.68
2016-07-30T09:46:35.908Z,50.81
2016-07-30T09:47:35.928Z,50.91
2016-07-30T09:48:35.951Z,50.35
2016-07-30T09:49:35.971Z,49.87
2016-07-30T09:50:35.998Z,50.26
2016-07-30T09:51:36.016Z,50.07
2016-07-30T09:52:36.038Z,50.55
2016-07-30T09:53:36.066Z,50.38
2016-07-30T09:54:36.087Z,51.32
2016-07-30T09:55:36.106Z,51.81
2016-07-30T09:56:36.131Z,52.67
2016-07-30T09:57:36.148Z,52.26
2016-07-30T09:58:36.179Z,52.94
2016-07-30T09:59:36.197Z,52.75
2016-07-30T10:00:36.220Z,52.65
2016-07-30T10:01:36.242Z,52.94
2016-07-30T10:02:36.268Z,51.87
2016-07-30T10:03:36.283Z,52.07
2016-07-30T10:04:36.308Z,51.59
2016-07-30T10:05:36.330Z,50.55
2016-07-30T10:06:36.356Z,49.77
2016-07-30T10:07:36.372Z,49.77
2016-07-30T10:08:36.396Z,49.87
2016-07-30T10:09:36.417Z,49.58
2016-07-30T10:10:36.441Z,49.02
2016-07-30T10:11:36.462Z,48.64
2016-07-30T10:12:36.491Z,47.79
2016-07-30T10:13:36.513Z,46.92
2016-07-30T10:14:36.533Z,46.84
2016-07-30T10:15:36.556Z,46.66
2016-07-30T10:16:36.574Z,47.62
2016-07-30T10:17:36.607Z,47.14
2016-07-30T10:18:36.623Z,47.11
2016-07-30T10:19:36.641Z,46.53
2016-07-30T10:20:36.674Z,47.11
2016-07-30T10:21:36.698Z,47.41
2016-07-30T10:22:36.715Z,47.48
2016-07-30T10:23:36.741Z,47.48
2016-07-30T10:24:36.765Z,48.06
2016-07-30T10:25:36.782Z,48.57
2016-07-30T10:26:36.808Z,47.5
2016-07-30T10:27:36.828Z,46.66
2016-07-30T10:28:36.856Z,46.75
2016-07-30T10:29:36.874Z,45.49
2016-07-30T10:30:36.899Z,46.53
2016-07-30T10:31:36.921Z,46.05
2016-07-30T10:32:36.945Z,47.6
2016-07-30T10:33:36.970Z,46.73
2016-07-30T10:34:36.993Z,47.11
2016-07-30T10:35:37.015Z,46.46
2016-07-30T10:36:37.036Z,46.84
2016-07-30T10:37:37.070Z,46.75
2016-07-30T10:38:37.081Z,46.58
2016-07-30T10:39:37.108Z,46.97
2016-07-30T10:40:37.132Z,45.32
2016-07-30T10:41:37.152Z,45.51
2016-07-30T10:42:37.173Z,45.13
2016-07-30T10:43:37.197Z,45.34
2016-07-30T10:44:37.223Z,45.92
2016-07-30T10:45:37.243Z,45.64
2016-07-30T10:46:37.270Z,45.34
2016-07-30T10:47:37.293Z,44.67
2016-07-30T10:48:37.312Z,44.96
2016-07-30T10:49:37.338Z,44.96
2016-07-30T10:50:37.368Z,43.91
2016-07-30T10:51:37.382Z,44.59
2016-07-30T10:52:37.407Z,45.27
2016-07-30T10:53:37.431Z,45.07
2016-07-30T10:54:37.458Z,45.64
2016-07-30T10:55:37.483Z,45.25
2016-07-30T10:56:37.503Z,44.96
2016-07-30T10:57:37.528Z,45.25
2016-07-30T10:58:37.549Z,45.54
2016-07-30T10:59:37.571Z,45.73
2016-07-30T11:00:37.602Z,46.31
2016-07-30T11:01:37.623Z,46.48
2016-07-30T11:02:37.640Z,46.99
2016-07-30T11:03:37.671Z,47.64
2016-07-30T11:04:37.683Z,48.39
2016-07-30T11:05:37.719Z,48.39
2016-07-30T11:06:37.736Z,48.49
2016-07-30T11:07:37.762Z,48.97
2016-07-30T11:08:37.778Z,47.72
2016-07-30T11:10:37.831Z,47.52
2016-07-30T11:11:37.859Z,47.72
2016-07-30T11:12:37.881Z,47.84
2016-07-30T11:13:37.898Z,47.55
2016-07-30T11:14:37.925Z,47.84
2016-07-30T11:15:37.956Z,48.52
2016-07-30T11:16:37.971Z,47.84
2016-07-30T11:17:37.996Z,47.74
2016-07-30T11:18:38.019Z,48.61
2016-07-30T11:19:38.043Z,48.97
2016-07-30T11:20:38.061Z,49.56
2016-07-30T11:21:38.090Z,49.17
2016-07-30T11:22:38.110Z,48.49
2016-07-30T11:23:38.130Z,47.52
2016-07-30T11:25:38.184Z,48.57
2016-07-30T11:26:38.209Z,48.27
2016-07-30T11:27:38.227Z,48.66
2016-07-30T11:28:38.250Z,48.79
2016-07-30T11:29:38.280Z,48.59
2016-07-30T11:30:38.293Z,47.74
2016-07-30T11:31:38.318Z,47.45
2016-07-30T11:32:38.342Z,47.16
2016-07-30T11:33:38.366Z,47.14
2016-07-30T11:34:38.381Z,47.33
2016-07-30T11:35:38.407Z,47.14
2016-07-30T11:36:38.433Z,47.62
2016-07-30T11:37:38.454Z,47.41
2016-07-30T11:38:38.477Z,47.41
2016-07-30T11:40:38.524Z,47.41
2016-07-30T11:41:38.549Z,47.31
2016-07-30T11:42:38.577Z,47.5
2016-07-30T11:43:38.597Z,47.5
2016-07-30T11:44:38.619Z,47.62
2016-07-30T11:45:38.637Z,48.2
2016-07-30T11:46:38.661Z,48.3
2016-07-30T11:47:38.690Z,48.61
2016-07-30T11:48:38.710Z,48.22
2016-07-30T11:49:38.735Z,47.91
2016-07-30T11:50:38.749Z,48.2
2016-07-30T11:51:38.782Z,48.11
2016-07-30T11:52:38.813Z,47.74
2016-07-30T11:53:38.831Z,47.74
2016-07-30T11:55:38.876Z,46.8
2016-07-30T11:56:38.897Z,46.89
2016-07-30T11:57:38.927Z,45.56
2016-07-30T11:58:38.941Z,45.48
2016-07-30T11:59:38.962Z,45.2
2016-07-30T12:00:38.994Z,43.76
2016-07-30T12:01:39.014Z,43.57
2016-07-30T12:02:39.036Z,44.24
2016-07-30T12:03:39.065Z,44.9
2016-07-30T12:04:39.085Z,44.81
2016-07-30T12:05:39.109Z,45.75
2016-07-30T12:06:39.137Z,46.72
2016-07-30T12:07:39.156Z,47.28
2016-07-30T12:08:39.179Z,47.28
2016-07-30T12:09:39.202Z,47.67
2016-07-30T12:10:39.516Z,46.33
2016-07-30T12:11:39.257Z,44.78
2016-07-30T12:12:39.273Z,45.17
2016-07-30T12:13:39.298Z,45.47
2016-07-30T12:14:39.325Z,43.93
2016-07-30T12:15:39.349Z,42.99
2016-07-30T12:16:39.369Z,43.18
2016-07-30T12:17:39.403Z,43.2
2016-07-30T12:18:39.420Z,42.13
2016-07-30T12:19:39.442Z,42.15
2016-07-30T12:20:39.470Z,43.01
2016-07-30T12:21:39.494Z,43.88
2016-07-30T12:22:39.521Z,43.37
2016-07-30T12:23:39.541Z,44.64
2016-07-30T12:24:39.557Z,45.58
2016-07-30T12:25:39.591Z,45.68
2016-07-30T12:26:39.612Z,46.72
2016-07-30T12:27:39.634Z,47.3
2016-07-30T12:28:39.664Z,47.09
2016-07-30T12:29:39.686Z,47.96
2016-07-30T12:30:39.710Z,47.67
2016-07-30T12:31:39.731Z,47.47
2016-07-30T12:32:39.760Z,48.64
2016-07-30T12:33:39.774Z,48.9
2016-07-30T12:34:39.804Z,48.32
2016-07-30T12:35:39.822Z,48.22
2016-07-30T12:36:39.854Z,48.22
2016-07-30T12:37:39.873Z,47.64
2016-07-30T12:38:39.896Z,48.22
2016-07-30T12:39:39.921Z,47.74
2016-07-30T12:40:39.942Z,47.55
2016-07-30T12:41:39.968Z,47.38
2016-07-30T12:42:39.985Z,48.15
2016-07-30T12:43:40.019Z,48.61
2016-07-30T12:44:40.039Z,49
2016-07-30T12:45:40.066Z,48.81
2016-07-30T12:46:40.079Z,48.22
2016-07-30T12:47:40.104Z,48.32
2016-07-30T12:48:40.130Z,49.1
2016-07-30T12:49:40.160Z,49.65
2016-07-30T12:50:40.181Z,49.85
2016-07-30T12:51:40.197Z,50.12
2016-07-30T12:52:40.231Z,50.6
2016-07-30T12:53:40.243Z,51.86
2016-07-30T12:54:40.274Z,50.89
2016-07-30T12:55:40.295Z,50.98
2016-07-30T12:56:40.323Z,51.18
2016-07-30T12:57:40.337Z,51.66
2016-07-30T12:58:40.365Z,51.2
2016-07-30T12:59:40.393Z,51.37
2016-07-30T13:00:40.406Z,51.86
2016-07-30T13:01:40.432Z,52.73
2016-07-30T13:02:40.463Z,51.66
2016-07-30T13:03:40.474Z,52.24
2016-07-30T13:04:40.498Z,52.99
2016-07-30T13:05:40.530Z,53.19
2016-07-30T13:06:40.549Z,53.93
2016-07-30T13:07:40.570Z,54.8
2016-07-30T13:08:40.598Z,54.51
2016-07-30T13:09:40.621Z,54.87
2016-07-30T13:10:40.641Z,55.29